KSEG/SEG METAR and TAF weather

Enter ICAO airport designator
Station Type Date Time Source
KSEG METAR 2021/02/25 01:53 UTC NOAA

KSEG 250153Z AUTO 19003KT 10SM -RA OVC060 04/00 A2980 RMK AO2 RAB30 SLP096 P0001 T00440000


Station Type Date Time Source
KSEG Decoded METAR 2021/02/25 01:53 UTC NOAA

SELINSGROVE PENN VALLEY AIRPORT , PA, United States (KSEG) 40-49N 076-52W 134M
Feb 24, 2021 - 08:53 PM EST / 2021.02.25 0153 UTC
Wind: from the S (190 degrees) at 3 MPH (3 KT):0
Visibility: 10 mile(s):0
Sky conditions: overcast
Weather: light rain
Precipitation last hour: 0.01 inches
Temperature: 39.9 F (4.4 C)
Dew Point: 32.0 F (0.0 C)
Relative Humidity: 73%
Pressure (altimeter): 29.8 in. Hg (1009 hPa)
ob: KSEG 250153Z AUTO 19003KT 10SM -RA OVC060 04/00 A2980 RMK AO2 RAB30 SLP096 P0001 T00440000
cycle: 2

Station Type Date Time Source
KSEG TAF UTC NOAA

Error!

Example: see airport list